PWSweather.com
Personal Weather Stations
Station Observations
UISISLE1
Newport, Isle ofWight, ISLE OF WIGHT PO30 2JX

NewportIsle ofWight, ISLE OF WIGHT PO30 2JX

Lat: 50.72, Lon: -1.27

Elevation: 45

Station Type: Davis Vantage Pro Plus

http://www.isleofwightweather.co.uk

High Low Average
Temperature 74.0°F23.3°C 47.3°F8.5°C 60.3°F15.7°C
Dew Point 62.8°F17.1°C 45.1°F7.3°C 53.0°F11.7°C
Winds 5.6 mph 9.0 kmh Calm Calm 1.0 mph SE1.6 kmh SE
Wind Gusts 11.0 mph17.7 kmh -- 3.0 mph4.8 kmh
Humidity 97% 55% 78%
Pressure 30.29 in1025.7 mb 30.23 in1023.7 mb -
Precipitation 0.00 in0.0 mm - -
Hour Temp Dew Point Humidity Winds Wind Gusts Pressure Precip Precip Rate Daily Precip Total
12:00 AM 51.0°F10.6°C 47.9°F8.8°C 89% Calm Calm -- 30.24 in1024.0 mb - 0.00 in0.0 mm 0.00 in0.0 mm
12:15 AM 50.7°F10.4°C 47.6°F8.7°C 89% Calm Calm -- 30.23 in1023.7 mb - 0.00 in0.0 mm 0.00 in0.0 mm
12:30 AM 50.5°F10.3°C 47.4°F8.6°C 89% Calm Calm -- 30.23 in1023.7 mb - 0.00 in0.0 mm 0.00 in0.0 mm
12:45 AM 50.3°F10.2°C 47.1°F8.4°C 89% Calm Calm -- 30.23 in1023.7 mb - 0.00 in0.0 mm 0.00 in0.0 mm
01:00 AM 50.1°F10.1°C 47.0°F8.3°C 89% Calm Calm -- 30.23 in1023.7 mb - 0.00 in0.0 mm 0.00 in0.0 mm
01:15 AM 49.9°F9.9°C 47.1°F8.4°C 90% Calm Calm -- 30.23 in1023.7 mb - 0.00 in0.0 mm 0.00 in0.0 mm
01:30 AM 49.5°F9.7°C 46.7°F8.2°C 90% Calm Calm -- 30.23 in1023.7 mb - 0.00 in0.0 mm 0.00 in0.0 mm
01:45 AM 49.3°F9.6°C 46.5°F8.1°C 90% Calm Calm -- 30.23 in1023.7 mb - 0.00 in0.0 mm 0.00 in0.0 mm
02:00 AM 49.0°F9.4°C 46.2°F7.9°C 90% Calm Calm -- 30.23 in1023.7 mb - 0.00 in0.0 mm 0.00 in0.0 mm
02:15 AM 48.7°F9.3°C 45.9°F7.7°C 90% Calm Calm -- 30.23 in1023.7 mb - 0.00 in0.0 mm 0.00 in0.0 mm
02:30 AM 48.6°F9.2°C 45.8°F7.7°C 90% Calm Calm -- 30.23 in1023.7 mb - 0.00 in0.0 mm 0.00 in0.0 mm
02:45 AM 48.6°F9.2°C 46.1°F7.8°C 91% Calm Calm -- 30.23 in1023.7 mb - 0.00 in0.0 mm 0.00 in0.0 mm
03:00 AM 48.3°F9.1°C 45.8°F7.7°C 91% Calm Calm -- 30.23 in1023.7 mb - 0.00 in0.0 mm 0.00 in0.0 mm
03:15 AM 48.1°F8.9°C 45.6°F7.6°C 91% Calm Calm -- 30.23 in1023.7 mb - 0.00 in0.0 mm 0.00 in0.0 mm
03:30 AM 48.0°F8.9°C 45.5°F7.5°C 91% Calm Calm -- 30.24 in1024.0 mb - 0.00 in0.0 mm 0.00 in0.0 mm
03:45 AM 47.9°F8.8°C 45.4°F7.4°C 91% Calm Calm -- 30.24 in1024.0 mb - 0.00 in0.0 mm 0.00 in0.0 mm
04:00 AM 47.8°F8.8°C 45.3°F7.4°C 91% Calm Calm -- 30.24 in1024.0 mb - 0.00 in0.0 mm 0.00 in0.0 mm
04:15 AM 47.8°F8.8°C 45.3°F7.4°C 91% Calm Calm -- 30.23 in1023.7 mb - 0.00 in0.0 mm 0.00 in0.0 mm
04:30 AM 47.7°F8.7°C 45.5°F7.5°C 92% Calm Calm -- 30.23 in1023.7 mb - 0.00 in0.0 mm 0.00 in0.0 mm
04:45 AM 47.6°F8.7°C 45.4°F7.4°C 92% Calm Calm -- 30.23 in1023.7 mb - 0.00 in0.0 mm 0.00 in0.0 mm
05:00 AM 47.5°F8.6°C 45.3°F7.4°C 92% Calm Calm -- 30.23 in1023.7 mb - 0.00 in0.0 mm 0.00 in0.0 mm
05:15 AM 47.4°F8.6°C 45.2°F7.3°C 92% Calm Calm -- 30.23 in1023.7 mb - 0.00 in0.0 mm 0.00 in0.0 mm
05:30 AM 47.3°F8.5°C 45.1°F7.3°C 92% Calm Calm -- 30.24 in1024.0 mb - 0.00 in0.0 mm 0.00 in0.0 mm
05:45 AM 47.3°F8.5°C 45.1°F7.3°C 92% Calm Calm -- 30.24 in1024.0 mb - 0.00 in0.0 mm 0.00 in0.0 mm
06:00 AM 47.3°F8.5°C 45.1°F7.3°C 92% Calm Calm -- 30.25 in1024.4 mb - 0.00 in0.0 mm 0.00 in0.0 mm
06:15 AM 47.4°F8.6°C 45.2°F7.3°C 92% Calm Calm -- 30.25 in1024.4 mb - 0.00 in0.0 mm 0.00 in0.0 mm
06:30 AM 47.7°F8.7°C 45.8°F7.7°C 93% Calm Calm -- 30.25 in1024.4 mb - 0.00 in0.0 mm 0.00 in0.0 mm
06:45 AM 48.2°F9.0°C 46.3°F7.9°C 93% Calm Calm -- 30.25 in1024.4 mb - 0.00 in0.0 mm 0.00 in0.0 mm
07:00 AM 49.2°F9.6°C 47.5°F8.6°C 94% Calm Calm -- 30.25 in1024.4 mb - 0.00 in0.0 mm 0.00 in0.0 mm
07:15 AM 50.8°F10.4°C 49.4°F9.7°C 95% Calm Calm -- 30.26 in1024.7 mb - 0.00 in0.0 mm 0.00 in0.0 mm
07:30 AM 52.6°F11.4°C 51.3°F10.7°C 95% Calm Calm -- 30.26 in1024.7 mb - 0.00 in0.0 mm 0.00 in0.0 mm
07:45 AM 55.3°F12.9°C 54.2°F12.3°C 96% Calm Calm -- 30.27 in1025.1 mb - 0.00 in0.0 mm 0.00 in0.0 mm
08:00 AM 57.9°F14.4°C 57.0°F13.9°C 97% 0.8 mph SW1.3 kmh SW 1.0 mph1.6 kmh 30.27 in1025.1 mb - 0.00 in0.0 mm 0.00 in0.0 mm
08:15 AM 60.8°F16.0°C 59.9°F15.5°C 97% 1.1 mph S1.8 kmh S 6.0 mph9.7 kmh 30.27 in1025.1 mb - 0.00 in0.0 mm 0.00 in0.0 mm
08:30 AM 62.0°F16.7°C 60.9°F16.1°C 96% 1.5 mph SE2.4 kmh SE 6.0 mph9.7 kmh 30.27 in1025.1 mb - 0.00 in0.0 mm 0.00 in0.0 mm
08:45 AM 63.1°F17.3°C 61.9°F16.6°C 96% 2.0 mph SE3.2 kmh SE 8.0 mph12.9 kmh 30.28 in1025.4 mb - 0.00 in0.0 mm 0.00 in0.0 mm
09:00 AM 64.7°F18.2°C 62.6°F17.0°C 93% 3.1 mph E5.0 kmh E 9.0 mph14.5 kmh 30.28 in1025.4 mb - 0.00 in0.0 mm 0.00 in0.0 mm
09:15 AM 66.8°F19.3°C 62.8°F17.1°C 87% 2.5 mph SW4.0 kmh SW 5.0 mph8.0 kmh 30.28 in1025.4 mb - 0.00 in0.0 mm 0.00 in0.0 mm
09:30 AM 68.6°F20.3°C 61.9°F16.6°C 79% 2.5 mph ESE4.0 kmh ESE 7.0 mph11.3 kmh 30.28 in1025.4 mb - 0.00 in0.0 mm 0.00 in0.0 mm
09:45 AM 69.9°F21.1°C 60.8°F16.0°C 73% 3.9 mph E6.3 kmh E 7.0 mph11.3 kmh 30.28 in1025.4 mb - 0.00 in0.0 mm 0.00 in0.0 mm
10:00 AM 70.9°F21.6°C 61.0°F16.1°C 71% 2.6 mph E4.2 kmh E 6.0 mph9.7 kmh 30.28 in1025.4 mb - 0.00 in0.0 mm 0.00 in0.0 mm
10:15 AM 71.5°F21.9°C 61.2°F16.2°C 70% 0.4 mph SE0.6 kmh SE 4.0 mph6.4 kmh 30.29 in1025.7 mb - 0.00 in0.0 mm 0.00 in0.0 mm
10:30 AM 71.7°F22.1°C 60.6°F15.9°C 68% 5.6 mph S9.0 kmh S 9.0 mph14.5 kmh 30.28 in1025.4 mb - 0.00 in0.0 mm 0.00 in0.0 mm
10:45 AM 71.9°F22.2°C 61.2°F16.2°C 69% 2.6 mph SSE4.2 kmh SSE 6.0 mph9.7 kmh 30.28 in1025.4 mb - 0.00 in0.0 mm 0.00 in0.0 mm
11:00 AM 72.4°F22.4°C 61.7°F16.5°C 69% 2.5 mph SSE4.0 kmh SSE 6.0 mph9.7 kmh 30.28 in1025.4 mb - 0.00 in0.0 mm 0.00 in0.0 mm
11:15 AM 72.6°F22.6°C 60.6°F15.9°C 66% 1.5 mph ENE2.4 kmh ENE 6.0 mph9.7 kmh 30.28 in1025.4 mb - 0.00 in0.0 mm 0.00 in0.0 mm
11:30 AM 73.3°F22.9°C 61.6°F16.4°C 67% 1.5 mph ESE2.4 kmh ESE 8.0 mph12.9 kmh 30.28 in1025.4 mb - 0.00 in0.0 mm 0.00 in0.0 mm
11:45 AM 73.6°F23.1°C 60.2°F15.7°C 63% 5.1 mph ESE8.2 kmh ESE 11.0 mph17.7 kmh 30.28 in1025.4 mb - 0.00 in0.0 mm 0.00 in0.0 mm
12:00 PM 72.8°F22.7°C 59.0°F15.0°C 62% 4.8 mph SE7.7 kmh SE 9.0 mph14.5 kmh 30.28 in1025.4 mb - 0.00 in0.0 mm 0.00 in0.0 mm
12:15 PM 72.5°F22.5°C 59.2°F15.1°C 63% 2.4 mph SE3.9 kmh SE 10.0 mph16.1 kmh 30.28 in1025.4 mb - 0.00 in0.0 mm 0.00 in0.0 mm
12:30 PM 72.8°F22.7°C 60.4°F15.8°C 65% 1.5 mph SSE2.4 kmh SSE 6.0 mph9.7 kmh 30.28 in1025.4 mb - 0.00 in0.0 mm 0.00 in0.0 mm
12:45 PM 73.4°F23.0°C 59.6°F15.3°C 62% 1.6 mph E2.6 kmh E 8.0 mph12.9 kmh 30.28 in1025.4 mb - 0.00 in0.0 mm 0.00 in0.0 mm
01:00 PM 73.8°F23.2°C 59.5°F15.3°C 61% 2.4 mph SE3.9 kmh SE 7.0 mph11.3 kmh 30.28 in1025.4 mb - 0.00 in0.0 mm 0.00 in0.0 mm
01:15 PM 73.7°F23.2°C 59.4°F15.2°C 61% 2.7 mph ESE4.3 kmh ESE 9.0 mph14.5 kmh 30.27 in1025.1 mb - 0.00 in0.0 mm 0.00 in0.0 mm
01:30 PM 73.8°F23.2°C 59.1°F15.1°C 60% 3.7 mph SSE6.0 kmh SSE 9.0 mph14.5 kmh 30.27 in1025.1 mb - 0.00 in0.0 mm 0.00 in0.0 mm
01:45 PM 73.9°F23.3°C 58.7°F14.8°C 59% 2.2 mph SSE3.5 kmh SSE 8.0 mph12.9 kmh 30.27 in1025.1 mb - 0.00 in0.0 mm 0.00 in0.0 mm
02:00 PM 73.9°F23.3°C 57.7°F14.3°C 57% 3.4 mph E5.5 kmh E 6.0 mph9.7 kmh 30.27 in1025.1 mb - 0.00 in0.0 mm 0.00 in0.0 mm
02:15 PM 73.8°F23.2°C 57.6°F14.2°C 57% 3.6 mph E5.8 kmh E 9.0 mph14.5 kmh 30.27 in1025.1 mb - 0.00 in0.0 mm 0.00 in0.0 mm
02:30 PM 74.0°F23.3°C 57.3°F14.1°C 56% 1.6 mph SE2.6 kmh SE 8.0 mph12.9 kmh 30.27 in1025.1 mb - 0.00 in0.0 mm 0.00 in0.0 mm
02:45 PM 73.8°F23.2°C 56.6°F13.7°C 55% 5.0 mph ESE8.0 kmh ESE 8.0 mph12.9 kmh 30.27 in1025.1 mb - 0.00 in0.0 mm 0.00 in0.0 mm
03:00 PM 73.5°F23.1°C 56.4°F13.6°C 55% 1.8 mph SE2.9 kmh SE 8.0 mph12.9 kmh 30.27 in1025.1 mb - 0.00 in0.0 mm 0.00 in0.0 mm
03:15 PM 72.8°F22.7°C 56.2°F13.4°C 56% 1.1 mph SSE1.8 kmh SSE 5.0 mph8.0 kmh 30.27 in1025.1 mb - 0.00 in0.0 mm 0.00 in0.0 mm
03:30 PM 71.6°F22.0°C 55.0°F12.8°C 56% 1.6 mph SE2.6 kmh SE 4.0 mph6.4 kmh 30.27 in1025.1 mb - 0.00 in0.0 mm 0.00 in0.0 mm
03:45 PM 70.4°F21.3°C 54.9°F12.7°C 58% 0.4 mph SSE0.6 kmh SSE -- 30.26 in1024.7 mb - 0.00 in0.0 mm 0.00 in0.0 mm
04:00 PM 69.8°F21.0°C 54.8°F12.7°C 59% 1.0 mph SE1.6 kmh SE 6.0 mph9.7 kmh 30.26 in1024.7 mb - 0.00 in0.0 mm 0.00 in0.0 mm
04:15 PM 69.5°F20.8°C 55.5°F13.1°C 61% 1.3 mph E2.1 kmh E 4.0 mph6.4 kmh 30.26 in1024.7 mb - 0.00 in0.0 mm 0.00 in0.0 mm
04:30 PM 69.0°F20.6°C 54.5°F12.5°C 60% 1.6 mph SE2.6 kmh SE 6.0 mph9.7 kmh 30.26 in1024.7 mb - 0.00 in0.0 mm 0.00 in0.0 mm
04:45 PM 68.6°F20.3°C 55.1°F12.8°C 62% 0.6 mph S1.0 kmh S 4.0 mph6.4 kmh 30.27 in1025.1 mb - 0.00 in0.0 mm 0.00 in0.0 mm
05:00 PM 68.2°F20.1°C 54.7°F12.6°C 62% 2.4 mph ESE3.9 kmh ESE 5.0 mph8.0 kmh 30.27 in1025.1 mb - 0.00 in0.0 mm 0.00 in0.0 mm
05:15 PM 67.8°F19.9°C 54.7°F12.6°C 63% 2.3 mph SSE3.7 kmh SSE 4.0 mph6.4 kmh 30.27 in1025.1 mb - 0.00 in0.0 mm 0.00 in0.0 mm
05:30 PM 67.3°F19.6°C 54.7°F12.6°C 64% 4.2 mph E6.8 kmh E 7.0 mph11.3 kmh 30.27 in1025.1 mb - 0.00 in0.0 mm 0.00 in0.0 mm
05:45 PM 66.9°F19.4°C 55.2°F12.9°C 66% 1.1 mph SE1.8 kmh SE 4.0 mph6.4 kmh 30.27 in1025.1 mb - 0.00 in0.0 mm 0.00 in0.0 mm
06:00 PM 66.6°F19.2°C 55.7°F13.2°C 68% 0.1 mph E0.2 kmh E -- 30.27 in1025.1 mb - 0.00 in0.0 mm 0.00 in0.0 mm
06:15 PM 66.4°F19.1°C 56.3°F13.5°C 70% 0.2 mph E0.3 kmh E 2.0 mph3.2 kmh 30.27 in1025.1 mb - 0.00 in0.0 mm 0.00 in0.0 mm
06:30 PM 66.1°F18.9°C 56.0°F13.3°C 70% Calm Calm -- 30.27 in1025.1 mb - 0.00 in0.0 mm 0.00 in0.0 mm
06:45 PM 65.7°F18.7°C 55.6°F13.1°C 70% Calm Calm -- 30.27 in1025.1 mb - 0.00 in0.0 mm 0.00 in0.0 mm
07:00 PM 64.8°F18.2°C 54.8°F12.7°C 70% Calm Calm -- 30.27 in1025.1 mb - 0.00 in0.0 mm 0.00 in0.0 mm
07:15 PM 63.8°F17.7°C 54.2°F12.3°C 71% Calm Calm -- 30.28 in1025.4 mb - 0.00 in0.0 mm 0.00 in0.0 mm
07:30 PM 62.5°F16.9°C 53.7°F12.1°C 73% Calm Calm -- 30.28 in1025.4 mb - 0.00 in0.0 mm 0.00 in0.0 mm
07:45 PM 61.5°F16.4°C 53.1°F11.7°C 74% Calm Calm -- 30.28 in1025.4 mb - 0.00 in0.0 mm 0.00 in0.0 mm
08:00 PM 60.6°F15.9°C 52.6°F11.4°C 75% Calm Calm -- 30.28 in1025.4 mb - 0.00 in0.0 mm 0.00 in0.0 mm
08:15 PM 59.9°F15.5°C 52.6°F11.4°C 77% Calm Calm -- 30.28 in1025.4 mb - 0.00 in0.0 mm 0.00 in0.0 mm
08:30 PM 59.1°F15.1°C 52.6°F11.4°C 79% Calm Calm -- 30.28 in1025.4 mb - 0.00 in0.0 mm 0.00 in0.0 mm
08:45 PM 58.2°F14.6°C 52.1°F11.2°C 80% Calm Calm -- 30.28 in1025.4 mb - 0.00 in0.0 mm 0.00 in0.0 mm
09:00 PM 57.5°F14.2°C 51.7°F10.9°C 81% Calm Calm -- 30.28 in1025.4 mb - 0.00 in0.0 mm 0.00 in0.0 mm
09:15 PM 56.8°F13.8°C 51.4°F10.8°C 82% Calm Calm -- 30.29 in1025.7 mb - 0.00 in0.0 mm 0.00 in0.0 mm
09:30 PM 56.2°F13.4°C 51.1°F10.6°C 83% Calm Calm -- 30.29 in1025.7 mb - 0.00 in0.0 mm 0.00 in0.0 mm
09:45 PM 55.6°F13.1°C 50.9°F10.5°C 84% Calm Calm -- 30.29 in1025.7 mb - 0.00 in0.0 mm 0.00 in0.0 mm
10:00 PM 55.1°F12.8°C 50.7°F10.4°C 85% Calm Calm -- 30.29 in1025.7 mb - 0.00 in0.0 mm 0.00 in0.0 mm
10:15 PM 54.6°F12.6°C 50.5°F10.3°C 86% Calm Calm -- 30.29 in1025.7 mb - 0.00 in0.0 mm 0.00 in0.0 mm
10:30 PM 54.2°F12.3°C 50.4°F10.2°C 87% Calm Calm -- 30.29 in1025.7 mb - 0.00 in0.0 mm 0.00 in0.0 mm
10:45 PM 53.8°F12.1°C 50.3°F10.2°C 88% Calm Calm -- 30.29 in1025.7 mb - 0.00 in0.0 mm 0.00 in0.0 mm
11:00 PM 53.5°F11.9°C 50.0°F10.0°C 88% Calm Calm -- 30.28 in1025.4 mb - 0.00 in0.0 mm 0.00 in0.0 mm
11:15 PM 53.3°F11.8°C 50.1°F10.1°C 89% Calm Calm -- 30.28 in1025.4 mb - 0.00 in0.0 mm 0.00 in0.0 mm
11:30 PM 53.1°F11.7°C 49.9°F9.9°C 89% Calm Calm -- 30.28 in1025.4 mb - 0.00 in0.0 mm 0.00 in0.0 mm
11:45 PM 52.9°F11.6°C 50.0°F10.0°C 90% Calm Calm -- 30.28 in1025.4 mb - 0.00 in0.0 mm 0.00 in0.0 mm